Time;durP1;ratioP1;P1;durP2;ratioP2;P2;SDS_P1;SDS_P2;PMS_P1;PMS_P2;Temp;Humidity;BMP_temperature;BMP_pressure;BME280_temperature;BME280_humidity;BME280_pressure;Samples;Min_cycle;Max_cycle;Signal;HPM_P1;HPM_P2
2021/06/01 00:01:32;;;;;;;4.80;2.70;;;14.70;84.40;;;;;;5259929;27;20112;-64
2021/06/01 00:03:59;;;;;;;3.20;2.47;;;14.70;83.80;;;;;;5260699;27;20165;-63
2021/06/01 00:06:28;;;;;;;3.20;2.43;;;14.70;84.30;;;;;;5260794;27;20477;-64
2021/06/01 00:08:57;;;;;;;6.93;2.67;;;14.60;85.00;;;;;;5260887;27;20107;-64
2021/06/01 00:11:24;;;;;;;3.13;2.43;;;14.60;85.00;;;;;;5260883;27;20134;-63
2021/06/01 00:13:57;;;;;;;5.50;2.40;;;14.60;84.30;;;;;;5260967;27;20137;-63
2021/06/01 00:16:29;;;;;;;4.50;2.40;;;14.60;84.50;;;;;;5261183;27;20539;-64
2021/06/01 00:18:58;;;;;;;3.63;2.57;;;14.60;86.80;;;;;;5261140;27;20534;-64
2021/06/01 00:21:27;;;;;;;3.60;2.40;;;14.50;85.10;;;;;;5260674;27;20139;-65
2021/06/01 00:23:59;;;;;;;3.67;2.77;;;14.50;85.00;;;;;;5260757;27;20150;-64
2021/06/01 00:26:27;;;;;;;2.93;2.30;;;14.50;85.10;;;;;;5261337;27;20111;-62
2021/06/01 00:29:00;;;;;;;2.97;2.10;;;14.50;86.40;;;;;;5260340;27;20107;-64
2021/06/01 00:31:28;;;;;;;3.20;2.53;;;14.40;86.30;;;;;;5260383;27;20111;-64
2021/06/01 00:33:55;;;;;;;4.27;2.80;;;14.40;85.60;;;;;;5260876;27;20105;-62
2021/06/01 00:36:39;;;;;;;3.10;2.57;;;14.40;87.30;;;;;;5261168;27;20135;-63
2021/06/01 00:41:47;;;;;;;2.93;2.60;;;14.30;85.50;;;;;;5193702;27;20229;-62
2021/06/01 00:44:14;;;;;;;2.53;2.00;;;14.30;85.40;;;;;;5195052;27;20562;-62
2021/06/01 00:46:41;;;;;;;6.10;2.83;;;14.30;85.50;;;;;;5194038;27;20175;-64
2021/06/01 00:49:10;;;;;;;3.30;2.47;;;14.30;85.40;;;;;;5194392;27;20120;-62
2021/06/01 00:51:41;;;;;;;2.50;2.10;;;14.30;86.20;;;;;;5194137;27;20160;-65
2021/06/01 00:54:08;;;;;;;3.93;2.43;;;14.30;85.40;;;;;;5194114;27;20163;-61
2021/06/01 00:56:45;;;;;;;5.93;2.97;;;14.30;86.10;;;;;;5193969;27;20104;-65
2021/06/01 00:59:14;;;;;;;5.43;2.50;;;14.20;84.50;;;;;;5194392;27;20131;-63
2021/06/01 01:01:49;;;;;;;3.43;2.00;;;14.20;84.80;;;;;;5194026;27;20521;-63
2021/06/01 01:04:20;;;;;;;3.60;2.30;;;14.20;85.10;;;;;;5194029;27;20131;-65
2021/06/01 01:13:36;;;;;;;4.10;2.67;;;14.10;85.50;;;;;;5193791;27;20440;-65
2021/06/01 01:16:04;;;;;;;4.80;2.27;;;14.10;85.40;;;;;;5195557;27;20157;-62
2021/06/01 01:18:35;;;;;;;3.27;2.30;;;14.10;86.00;;;;;;5213329;27;20127;-65
2021/06/01 01:21:13;;;;;;;3.23;2.57;;;14.00;85.00;;;;;;5260084;27;20139;-63
2021/06/01 01:23:44;;;;;;;4.67;2.20;;;14.10;84.10;;;;;;5260480;27;20156;-63
2021/06/01 01:26:18;;;;;;;3.33;2.43;;;14.00;84.50;;;;;;5260123;27;20112;-62
2021/06/01 01:29:00;;;;;;;4.60;2.30;;;14.00;84.50;;;;;;5260650;27;20103;-64
2021/06/01 01:31:35;;;;;;;2.43;1.87;;;14.00;86.60;;;;;;5260283;27;20107;-62
2021/06/01 01:34:04;;;;;;;2.80;2.20;;;14.00;85.10;;;;;;5260468;27;20503;-63
2021/06/01 01:36:35;;;;;;;3.33;1.97;;;14.00;89.40;;;;;;5260315;27;20238;-61
2021/06/01 01:39:03;;;;;;;2.30;1.90;;;13.90;88.20;;;;;;5260412;27;20115;-64
2021/06/01 01:41:34;;;;;;;3.03;2.00;;;13.90;90.00;;;;;;5260249;27;20177;-64
2021/06/01 01:44:03;;;;;;;5.27;2.13;;;13.80;89.60;;;;;;5260351;27;20107;-65
2021/06/01 01:46:35;;;;;;;2.30;2.10;;;13.80;88.10;;;;;;5260178;27;20527;-62
2021/06/01 01:49:03;;;;;;;2.83;2.00;;;13.80;87.50;;;;;;5260346;27;20141;-63
2021/06/01 01:51:35;;;;;;;4.57;2.37;;;13.80;86.60;;;;;;5260039;27;20511;-67
2021/06/01 01:54:04;;;;;;;2.93;1.97;;;13.70;86.80;;;;;;5259959;27;20150;-63
2021/06/01 01:56:34;;;;;;;4.90;2.13;;;13.70;87.60;;;;;;5260970;27;20534;-63
2021/06/01 01:59:01;;;;;;;5.33;2.53;;;13.70;87.60;;;;;;5261309;27;20535;-65
2021/06/01 02:01:32;;;;;;;4.63;1.90;;;13.70;85.80;;;;;;5260824;27;20162;-65
2021/06/01 02:04:00;;;;;;;4.43;2.63;;;13.70;85.50;;;;;;5260316;27;20170;-64
2021/06/01 02:06:28;;;;;;;3.73;2.43;;;13.70;85.60;;;;;;5260796;27;20483;-65
2021/06/01 02:08:54;;;;;;;3.27;2.10;;;13.70;86.00;;;;;;5260092;27;20108;-63
2021/06/01 02:11:21;;;;;;;2.27;1.83;;;13.60;86.30;;;;;;5260141;27;20507;-64
2021/06/01 02:13:50;;;;;;;3.00;2.07;;;13.60;85.70;;;;;;5260795;27;20123;-64
2021/06/01 02:16:19;;;;;;;2.53;2.10;;;13.60;88.90;;;;;;5259954;27;20107;-65
2021/06/01 02:18:46;;;;;;;3.80;2.10;;;13.60;87.90;;;;;;5261028;27;20448;-64
2021/06/01 02:21:21;;;;;;;8.27;2.77;;;13.60;89.20;;;;;;5261672;27;20467;-64
2021/06/01 02:23:55;;;;;;;5.73;2.33;;;13.50;88.20;;;;;;5260204;27;20162;-65
2021/06/01 02:26:44;;;;;;;3.07;2.10;;;13.40;90.40;;;;;;5262598;27;20122;-64
2021/06/01 02:29:19;;;;;;;3.03;2.40;;;13.40;90.90;;;;;;5260172;27;20539;-65
2021/06/01 02:31:46;;;;;;;3.27;2.50;;;13.40;90.90;;;;;;5261136;27;20107;-63
2021/06/01 02:34:14;;;;;;;3.23;2.20;;;13.30;92.40;;;;;;5260270;27;20127;-62
2021/06/01 02:36:41;;;;;;;3.43;2.40;;;13.30;91.60;;;;;;5259803;27;20107;-63
2021/06/01 02:39:10;;;;;;;2.73;2.10;;;13.20;90.90;;;;;;5260252;27;20125;-63
2021/06/01 02:41:36;;;;;;;3.67;2.47;;;13.20;92.00;;;;;;5260235;27;20103;-64
2021/06/01 02:44:04;;;;;;;3.43;2.33;;;13.20;93.40;;;;;;5260288;27;20138;-64
2021/06/01 02:46:31;;;;;;;2.53;2.33;;;13.10;92.00;;;;;;5261396;27;20108;-63
2021/06/01 02:48:58;;;;;;;5.33;2.60;;;13.10;92.90;;;;;;5261528;27;20597;-63
2021/06/01 02:51:25;;;;;;;4.23;2.77;;;13.10;92.60;;;;;;5262506;27;20122;-63
2021/06/01 02:53:58;;;;;;;3.73;2.77;;;13.00;92.90;;;;;;5261101;27;20127;-63
2021/06/01 02:56:28;;;;;;;4.60;2.60;;;13.00;92.20;;;;;;5262029;27;20553;-63
2021/06/01 02:58:56;;;;;;;5.77;3.10;;;12.90;92.10;;;;;;5261360;27;20126;-63
2021/06/01 03:01:25;;;;;;;2.93;2.63;;;12.90;91.60;;;;;;5261201;27;20107;-63
2021/06/01 03:03:53;;;;;;;6.27;2.93;;;12.90;91.80;;;;;;5262835;27;20468;-64
2021/06/01 03:06:20;;;;;;;3.43;2.37;;;12.90;91.30;;;;;;5261447;27;20122;-65
2021/06/01 03:08:47;;;;;;;5.30;2.50;;;12.90;92.20;;;;;;5261508;27;20107;-64
2021/06/01 03:11:16;;;;;;;4.67;2.77;;;12.90;91.60;;;;;;5261526;27;20170;-65
2021/06/01 03:13:45;;;;;;;3.50;2.40;;;12.90;90.60;;;;;;5261454;27;20107;-64
2021/06/01 03:16:11;;;;;;;3.03;2.50;;;12.90;92.90;;;;;;5261903;27;20107;-64
2021/06/01 03:18:38;;;;;;;5.00;2.70;;;12.80;93.50;;;;;;5261278;27;20107;-63
2021/06/01 03:21:05;;;;;;;4.63;2.70;;;12.80;92.80;;;;;;5260951;27;20143;-63
2021/06/01 03:23:31;;;;;;;3.87;3.00;;;12.80;92.60;;;;;;5261348;27;20134;-63
2021/06/01 03:25:58;;;;;;;3.60;2.93;;;12.80;93.20;;;;;;5261083;27;20128;-62
2021/06/01 03:28:25;;;;;;;8.40;2.60;;;12.70;92.80;;;;;;5261913;27;20146;-65
2021/06/01 03:30:53;;;;;;;3.20;2.70;;;12.70;92.50;;;;;;5261173;27;20112;-64
2021/06/01 03:33:19;;;;;;;3.47;2.70;;;12.70;94.50;;;;;;5261262;27;20130;-63
2021/06/01 03:35:46;;;;;;;5.17;2.83;;;12.60;93.50;;;;;;5262940;27;20171;-64
2021/06/01 03:38:13;;;;;;;3.33;3.03;;;12.60;93.50;;;;;;5261335;27;20110;-63
2021/06/01 03:40:39;;;;;;;4.67;2.77;;;12.60;94.20;;;;;;5260793;27;20571;-63
2021/06/01 03:43:08;;;;;;;6.93;3.17;;;12.60;94.30;;;;;;5261063;27;20137;-63
2021/06/01 03:45:35;;;;;;;4.30;2.70;;;12.60;94.60;;;;;;5260954;27;20174;-64
2021/06/01 03:48:03;;;;;;;5.10;2.77;;;12.60;94.10;;;;;;5261658;27;20581;-63
2021/06/01 03:50:30;;;;;;;3.00;2.70;;;12.60;93.10;;;;;;5263346;27;20107;-64
2021/06/01 03:52:56;;;;;;;4.90;3.07;;;12.60;93.60;;;;;;5261160;27;20115;-64
2021/06/01 03:55:23;;;;;;;5.03;3.13;;;12.60;95.00;;;;;;5260905;27;20163;-63
2021/06/01 03:57:56;;;;;;;6.43;3.10;;;12.60;94.30;;;;;;5260916;27;20118;-63
2021/06/01 04:00:28;;;;;;;4.23;2.50;;;12.60;95.00;;;;;;5260663;27;20126;-64
2021/06/01 04:02:55;;;;;;;3.90;2.83;;;12.60;94.00;;;;;;5261994;27;20161;-62
2021/06/01 04:05:22;;;;;;;4.63;2.90;;;12.60;94.10;;;;;;5263186;27;20198;-62
2021/06/01 04:07:51;;;;;;;5.30;3.20;;;12.60;94.10;;;;;;5261723;27;20103;-64
2021/06/01 04:10:18;;;;;;;5.70;2.97;;;12.70;95.30;;;;;;5263408;27;20519;-63
2021/06/01 04:12:44;;;;;;;5.50;3.03;;;12.70;95.10;;;;;;5261002;27;20157;-64
2021/06/01 04:15:12;;;;;;;4.47;3.13;;;12.70;94.90;;;;;;5262658;27;20493;-65
2021/06/01 04:17:38;;;;;;;6.40;3.03;;;12.70;94.40;;;;;;5262631;27;20107;-64
2021/06/01 04:20:06;;;;;;;3.60;2.90;;;12.70;94.70;;;;;;5263064;27;20143;-65
2021/06/01 04:22:34;;;;;;;4.00;2.87;;;12.80;93.70;;;;;;5241256;27;20548;-64
2021/06/01 04:25:01;;;;;;;11.47;3.50;;;12.80;93.90;;;;;;5261360;27;20151;-63
2021/06/01 04:27:29;;;;;;;3.53;2.57;;;12.90;94.80;;;;;;5260571;27;20151;-64
2021/06/01 04:29:55;;;;;;;3.80;2.70;;;12.90;94.10;;;;;;5262565;27;20158;-62
2021/06/01 04:32:21;;;;;;;6.53;3.17;;;13.00;93.70;;;;;;5262681;27;20427;-63
2021/06/01 04:34:48;;;;;;;6.87;4.33;;;13.10;93.60;;;;;;5261428;27;20108;-64
2021/06/01 04:37:14;;;;;;;7.60;4.07;;;13.20;93.10;;;;;;5260590;27;20130;-65
2021/06/01 04:39:42;;;;;;;3.93;3.07;;;13.30;93.70;;;;;;5260483;27;20104;-65
2021/06/01 04:42:12;;;;;;;5.87;3.10;;;13.60;93.00;;;;;;5260041;27;20138;-65
2021/06/01 04:44:39;;;;;;;3.60;2.90;;;13.80;92.90;;;;;;5258294;27;20562;-63
2021/06/01 04:47:05;;;;;;;6.37;3.10;;;14.10;92.50;;;;;;5260100;27;20153;-65
2021/06/01 04:49:32;;;;;;;6.40;3.50;;;14.20;92.30;;;;;;5257985;27;20145;-63
2021/06/01 04:51:58;;;;;;;5.70;2.70;;;14.50;92.30;;;;;;5259732;27;20458;-62
2021/06/01 04:54:24;;;;;;;3.67;2.70;;;14.70;91.20;;;;;;5260097;27;20521;-65
2021/06/01 04:56:52;;;;;;;4.27;2.80;;;14.80;91.80;;;;;;5259966;27;20118;-64
2021/06/01 04:59:21;;;;;;;4.60;3.50;;;14.80;90.80;;;;;;5261488;27;20506;-62
2021/06/01 05:01:47;;;;;;;5.13;3.13;;;15.00;91.80;;;;;;5260656;27;20107;-63
2021/06/01 05:04:14;;;;;;;3.87;3.03;;;15.30;90.30;;;;;;5261997;27;20108;-63
2021/06/01 05:06:43;;;;;;;4.40;3.07;;;15.70;90.40;;;;;;5260183;27;20474;-62
2021/06/01 05:09:09;;;;;;;5.03;3.67;;;16.00;89.60;;;;;;5260919;27;20585;-65
2021/06/01 05:11:35;;;;;;;5.00;3.10;;;16.20;88.80;;;;;;5260015;27;20132;-62
2021/06/01 05:14:06;;;;;;;4.23;3.33;;;16.10;86.80;;;;;;5260598;27;20127;-64
2021/06/01 05:16:34;;;;;;;5.07;2.87;;;16.10;86.50;;;;;;5260916;27;20121;-63
2021/06/01 05:19:03;;;;;;;6.93;3.57;;;16.20;88.50;;;;;;5260512;27;20542;-63
2021/06/01 05:21:29;;;;;;;4.47;2.90;;;16.60;88.10;;;;;;5260519;27;20555;-63
2021/06/01 05:23:57;;;;;;;5.00;2.80;;;17.20;90.70;;;;;;5262457;27;20107;-62
2021/06/01 05:26:24;;;;;;;6.83;3.20;;;18.10;88.90;;;;;;5260127;27;20129;-64
2021/06/01 05:28:50;;;;;;;4.10;3.00;;;19.50;83.80;;;;;;5260156;27;20157;-62
2021/06/01 05:31:23;;;;;;;4.83;3.37;;;20.60;81.50;;;;;;5260050;27;20108;-62
2021/06/01 05:33:53;;;;;;;4.30;2.83;;;21.10;74.90;;;;;;5260747;27;20123;-65
2021/06/01 05:36:20;;;;;;;5.10;2.90;;;20.70;75.10;;;;;;5259966;27;20153;-61
2021/06/01 05:38:46;;;;;;;6.17;3.00;;;20.20;80.00;;;;;;5260332;27;20107;-63
2021/06/01 05:41:13;;;;;;;4.30;3.10;;;20.00;76.70;;;;;;5260352;27;20146;-62
2021/06/01 05:43:39;;;;;;;4.60;3.00;;;20.00;77.60;;;;;;5260972;27;20134;-64
2021/06/01 05:46:08;;;;;;;5.03;3.00;;;21.00;74.30;;;;;;5260304;27;20122;-62
2021/06/01 05:48:36;;;;;;;6.47;3.13;;;22.30;71.40;;;;;;5260655;27;20154;-65
2021/06/01 05:51:03;;;;;;;5.90;3.03;;;22.70;69.20;;;;;;5260173;27;20115;-64
2021/06/01 05:53:30;;;;;;;4.63;3.30;;;22.40;67.80;;;;;;5259997;27;20130;-63
2021/06/01 05:55:59;;;;;;;5.50;3.60;;;22.20;66.90;;;;;;5260099;27;20103;-64
2021/06/01 05:58:26;;;;;;;6.53;3.20;;;22.20;67.10;;;;;;5263178;27;20413;-62
2021/06/01 06:00:52;;;;;;;4.20;3.30;;;21.70;68.90;;;;;;5260145;27;20107;-63
2021/06/01 06:03:19;;;;;;;8.63;3.63;;;21.00;69.00;;;;;;5260156;27;20127;-62
2021/06/01 06:05:48;;;;;;;6.13;3.90;;;20.30;69.60;;;;;;5260192;27;20122;-61
2021/06/01 06:08:16;;;;;;;4.37;3.13;;;20.00;72.00;;;;;;5262221;27;20165;-63
2021/06/01 06:10:45;;;;;;;5.53;3.40;;;19.60;70.90;;;;;;5262682;27;20103;-63
2021/06/01 06:13:12;;;;;;;5.33;2.97;;;19.40;71.70;;;;;;5262694;27;20103;-63
2021/06/01 06:15:39;;;;;;;3.93;2.97;;;19.20;74.20;;;;;;5260759;27;20123;-61
2021/06/01 06:18:13;;;;;;;4.83;3.10;;;19.10;73.60;;;;;;5261105;27;20107;-61
2021/06/01 06:20:40;;;;;;;4.93;3.10;;;18.90;72.80;;;;;;5261200;27;20503;-62
2021/06/01 06:23:07;;;;;;;2.60;2.40;;;18.80;74.70;;;;;;5260664;27;20464;-63
2021/06/01 06:25:34;;;;;;;5.73;2.43;;;18.80;74.40;;;;;;5261125;27;20103;-62
2021/06/01 06:28:00;;;;;;;5.87;2.60;;;18.90;73.70;;;;;;5262021;27;20107;-63
2021/06/01 06:30:26;;;;;;;2.40;2.20;;;19.10;72.50;;;;;;5258681;27;20440;-64
2021/06/01 06:32:53;;;;;;;7.17;2.70;;;19.10;73.00;;;;;;5260522;27;20130;-64
2021/06/01 06:35:19;;;;;;;4.17;2.20;;;19.20;71.10;;;;;;5261269;27;20133;-63
2021/06/01 06:37:46;;;;;;;3.90;2.23;;;19.30;72.60;;;;;;5263813;27;20119;-63
2021/06/01 06:40:15;;;;;;;3.17;2.50;;;19.30;71.70;;;;;;5261899;27;20499;-62
2021/06/01 06:42:42;;;;;;;3.80;2.40;;;19.20;72.00;;;;;;5262490;27;20107;-64
2021/06/01 06:45:24;;;;;;;5.13;2.40;;;19.30;73.20;;;;;;5262838;27;20111;-62
2021/06/01 06:48:04;;;;;;;5.00;2.77;;;19.30;72.80;;;;;;5261615;27;20130;-63
2021/06/01 06:50:34;;;;;;;3.33;2.60;;;19.30;71.40;;;;;;5261370;27;20107;-63
2021/06/01 06:53:04;;;;;;;3.80;2.30;;;19.30;70.80;;;;;;5261267;27;20103;-62
2021/06/01 06:55:33;;;;;;;3.20;2.57;;;19.30;71.20;;;;;;5260910;27;20434;-61
2021/06/01 06:57:59;;;;;;;5.37;2.50;;;19.40;71.00;;;;;;5261311;27;20179;-64
2021/06/01 07:00:26;;;;;;;7.67;3.17;;;19.50;70.40;;;;;;5261000;27;20127;-62
2021/06/01 07:02:53;;;;;;;4.43;2.47;;;19.40;71.00;;;;;;5261347;27;20114;-61
2021/06/01 07:05:21;;;;;;;5.63;2.47;;;19.50;70.80;;;;;;5262155;27;20115;-64
2021/06/01 07:07:49;;;;;;;2.77;2.43;;;19.80;70.10;;;;;;5263734;27;20134;-65
2021/06/01 07:10:16;;;;;;;2.83;2.17;;;20.00;69.20;;;;;;5261284;27;20157;-62
2021/06/01 07:12:44;;;;;;;5.20;2.60;;;20.20;69.30;;;;;;5262672;27;20107;-63
2021/06/01 07:15:29;;;;;;;4.50;2.60;;;20.50;69.30;;;;;;5261058;27;20117;-65
2021/06/01 07:17:58;;;;;;;4.07;2.40;;;20.70;67.80;;;;;;5260095;27;20162;-61
2021/06/01 07:20:29;;;;;;;3.90;2.20;;;21.00;68.00;;;;;;5261801;27;20169;-63
2021/06/01 07:22:56;;;;;;;3.90;2.70;;;22.30;65.30;;;;;;5261202;27;20494;-64
2021/06/01 07:25:22;;;;;;;4.63;2.80;;;23.70;64.20;;;;;;5261223;27;20126;-63
2021/06/01 07:27:50;;;;;;;3.97;2.43;;;24.20;61.40;;;;;;5262058;27;20543;-63
2021/06/01 07:30:18;;;;;;;4.37;2.37;;;23.80;59.40;;;;;;5260885;27;20107;-65
2021/06/01 07:32:44;;;;;;;5.00;2.80;;;23.80;58.90;;;;;;5261426;27;20150;-65
2021/06/01 07:35:12;;;;;;;4.07;2.40;;;24.00;59.20;;;;;;5262709;27;20504;-64
2021/06/01 07:37:38;;;;;;;3.40;2.70;;;24.20;58.90;;;;;;5262011;27;20103;-63
2021/06/01 07:40:06;;;;;;;4.93;2.33;;;24.80;58.10;;;;;;5261898;27;20163;-62
2021/06/01 07:42:33;;;;;;;3.80;2.50;;;28.30;53.70;;;;;;5261853;27;20118;-62
2021/06/01 07:45:00;;;;;;;5.07;2.72;;;35.90;42.80;;;;;;5260796;27;20414;-64
2021/06/01 07:47:27;;;;;;;3.22;2.10;;;42.70;34.60;;;;;;5260938;27;20111;-63
2021/06/01 07:49:56;;;;;;;3.28;2.10;;;46.40;30.50;;;;;;5261696;27;20141;-63
2021/06/01 07:52:24;;;;;;;4.03;2.33;;;49.20;28.70;;;;;;5260818;27;20125;-63
2021/06/01 07:54:51;;;;;;;4.40;2.22;;;51.40;28.00;;;;;;5262120;27;20118;-63
2021/06/01 07:57:17;;;;;;;2.60;2.12;;;53.30;27.00;;;;;;5262236;27;20151;-64
2021/06/01 07:59:43;;;;;;;2.62;2.05;;;53.90;26.40;;;;;;5260515;27;20150;-66
2021/06/01 08:02:11;;;;;;;4.22;2.37;;;54.80;26.20;;;;;;5262191;27;20455;-63
2021/06/01 08:04:40;;;;;;;4.05;2.40;;;55.30;26.00;;;;;;5260969;27;20531;-63
2021/06/01 08:07:08;;;;;;;5.20;2.28;;;55.60;25.90;;;;;;5260731;27;20161;-63
2021/06/01 08:09:35;;;;;;;3.42;2.00;;;56.50;25.60;;;;;;5261062;27;20181;-62
2021/06/01 08:12:04;;;;;;;2.95;1.85;;;57.20;25.50;;;;;;5261138;27;20496;-64
2021/06/01 08:14:32;;;;;;;4.25;2.42;;;58.00;24.90;;;;;;5262509;27;20127;-65
2021/06/01 08:16:59;;;;;;;3.62;2.17;;;58.80;25.00;;;;;;5263072;27;20108;-64
2021/06/01 08:19:29;;;;;;;4.15;2.10;;;59.20;25.50;;;;;;5260953;27;20145;-66
2021/06/01 08:21:58;;;;;;;2.15;1.95;;;58.20;24.60;;;;;;5260556;27;20139;-64
2021/06/01 08:24:27;;;;;;;3.10;2.00;;;58.10;24.60;;;;;;5261315;27;20142;-64
2021/06/01 08:26:53;;;;;;;2.47;1.80;;;59.20;24.80;;;;;;5261007;27;20126;-65
2021/06/01 08:29:26;;;;;;;3.95;2.00;;;58.50;24.40;;;;;;5260904;27;20148;-65
2021/06/01 08:31:52;;;;;;;5.30;2.60;;;58.50;24.70;;;;;;5260544;27;20107;-63
2021/06/01 08:34:22;;;;;;;4.47;2.00;;;59.00;24.50;;;;;;5260164;27;20137;-64
2021/06/01 08:36:52;;;;;;;2.65;2.10;;;59.10;24.30;;;;;;5261912;27;20111;-67
2021/06/01 08:39:24;;;;;;;2.67;2.35;;;59.20;24.20;;;;;;5260900;27;20426;-65
2021/06/01 08:41:51;;;;;;;2.83;2.05;;;58.60;24.30;;;;;;5260428;27;20133;-64
2021/06/01 08:44:18;;;;;;;3.58;2.47;;;59.00;24.30;;;;;;5260573;27;20106;-64
2021/06/01 08:46:48;;;;;;;2.87;2.05;;;58.90;24.80;;;;;;5260639;27;20148;-67
2021/06/01 08:49:15;;;;;;;3.03;2.15;;;59.00;24.20;;;;;;5261404;27;20161;-64
2021/06/01 08:51:42;;;;;;;4.43;2.95;;;59.60;24.30;;;;;;5258721;27;20180;-65
2021/06/01 08:54:13;;;;;;;2.50;1.90;;;59.00;24.10;;;;;;5259524;27;20447;-66
2021/06/01 08:56:39;;;;;;;4.07;2.00;;;58.90;24.10;;;;;;5257465;27;20154;-64
2021/06/01 08:59:05;;;;;;;3.97;2.17;;;59.00;24.20;;;;;;5258606;27;20146;-64
2021/06/01 09:01:32;;;;;;;2.75;1.90;;;59.10;24.20;;;;;;5259528;27;20117;-65
2021/06/01 09:04:00;;;;;;;2.62;2.05;;;59.00;24.00;;;;;;5260532;27;20127;-65
2021/06/01 09:06:37;;;;;;;3.47;2.10;;;58.60;23.90;;;;;;5260661;27;20154;-65
2021/06/01 09:09:29;;;;;;;4.45;1.95;;;58.30;23.60;;;;;;5260661;27;20107;-66
2021/06/01 09:12:06;;;;;;;3.67;2.35;;;57.10;23.80;;;;;;5261126;27;20161;-63
2021/06/01 09:15:02;;;;;;;4.35;2.28;;;56.20;23.60;;;;;;5260863;27;20164;-62
2021/06/01 09:23:14;;;;;;;4.85;2.47;;;55.80;23.70;;;;;;5260696;27;20502;-63
2021/06/01 09:25:42;;;;;;;3.42;2.22;;;55.30;23.60;;;;;;5260471;27;20174;-63
2021/06/01 09:28:12;;;;;;;3.45;2.33;;;54.70;23.20;;;;;;5260438;27;20119;-64
2021/06/01 09:30:41;;;;;;;2.67;2.28;;;54.20;23.50;;;;;;5260336;27;20169;-66
2021/06/01 09:33:09;;;;;;;2.67;2.25;;;53.30;23.80;;;;;;5260502;27;20132;-63
2021/06/01 09:35:49;;;;;;;4.05;2.50;;;53.20;24.00;;;;;;5260220;27;20146;-65
2021/06/01 09:38:16;;;;;;;2.37;1.95;;;53.20;23.60;;;;;;5260932;27;20153;-65
2021/06/01 09:40:44;;;;;;;2.78;2.15;;;53.20;24.00;;;;;;5260158;27;20117;-63
2021/06/01 09:43:14;;;;;;;3.03;2.15;;;53.00;23.40;;;;;;5259720;27;20146;-64
2021/06/01 09:45:42;;;;;;;3.20;2.15;;;51.60;24.00;;;;;;5257731;27;20150;-63
2021/06/01 09:48:17;;;;;;;4.22;2.33;;;48.40;24.40;;;;;;5257450;27;20291;-64
2021/06/01 09:50:49;;;;;;;3.35;2.30;;;44.20;25.30;;;;;;5260138;27;20122;-67
2021/06/01 09:53:25;;;;;;;5.22;2.37;;;38.80;26.60;;;;;;5261871;27;20151;-65
2021/06/01 09:56:00;;;;;;;3.40;2.30;;;35.10;27.80;;;;;;5259599;27;20438;-64
2021/06/01 09:58:30;;;;;;;2.90;2.33;;;32.90;28.70;;;;;;5261069;27;20527;-65
2021/06/01 10:00:58;;;;;;;3.72;2.70;;;31.60;30.00;;;;;;5262185;27;20447;-63
2021/06/01 10:03:32;;;;;;;3.87;2.58;;;30.40;29.50;;;;;;5262363;27;20126;-61
2021/06/01 10:05:59;;;;;;;4.07;2.72;;;29.50;30.40;;;;;;5261765;27;20164;-61
2021/06/01 10:08:26;;;;;;;3.08;2.40;;;28.80;31.40;;;;;;5261857;27;20147;-66
2021/06/01 10:10:54;;;;;;;4.80;2.50;;;28.30;31.60;;;;;;5261473;27;20135;-62
2021/06/01 10:13:22;;;;;;;3.60;2.40;;;27.70;31.60;;;;;;5262426;27;20107;-62
2021/06/01 10:15:52;;;;;;;8.77;3.00;;;27.60;32.00;;;;;;5261880;27;20107;-61
2021/06/01 10:18:21;;;;;;;4.60;2.60;;;27.40;33.00;;;;;;5261984;27;20480;-61
2021/06/01 10:20:50;;;;;;;3.70;2.80;;;27.40;34.00;;;;;;5261710;27;20134;-65
2021/06/01 10:23:25;;;;;;;4.47;2.50;;;27.40;32.40;;;;;;5261512;27;20157;-62
2021/06/01 10:25:51;;;;;;;3.67;2.75;;;27.40;33.00;;;;;;5261744;27;20106;-64
2021/06/01 10:28:25;;;;;;;5.57;2.85;;;27.10;32.70;;;;;;5262090;27;20169;-62
2021/06/01 10:30:56;;;;;;;3.30;2.80;;;27.00;33.60;;;;;;5261758;27;20107;-64
2021/06/01 10:33:23;;;;;;;4.07;2.30;;;27.00;34.20;;;;;;5261292;27;20206;-61
2021/06/01 10:36:03;;;;;;;4.25;2.55;;;26.90;33.50;;;;;;5262558;27;20107;-63
2021/06/01 10:50:24;;;;;;;5.95;2.80;;;26.40;34.50;;;;;;5152988;27;20152;-64
2021/06/01 10:53:06;;;;;;;4.25;2.58;;;26.50;35.30;;;;;;5152934;27;20165;-63
2021/06/01 10:56:02;;;;;;;4.37;2.35;;;26.60;34.60;;;;;;5153294;27;20474;-62
2021/06/01 11:02:00;;;;;;;5.37;3.05;;;26.50;35.30;;;;;;5153399;27;20105;-64
2021/06/01 11:04:29;;;;;;;4.22;2.50;;;26.60;34.70;;;;;;5152637;27;20145;-65
2021/06/01 11:07:15;;;;;;;3.28;2.30;;;26.50;34.40;;;;;;5153292;27;20495;-63
2021/06/01 11:09:48;;;;;;;4.47;2.60;;;26.30;33.80;;;;;;5153917;27;20108;-63
2021/06/01 11:12:46;;;;;;;3.72;2.45;;;26.50;35.00;;;;;;5153095;27;20105;-67
2021/06/01 11:15:32;;;;;;;3.55;1.98;;;26.70;35.00;;;;;;5153176;27;20104;-65
2021/06/01 11:18:38;;;;;;;2.97;2.53;;;27.00;33.40;;;;;;5152854;27;20191;-63
2021/06/01 11:24:55;;;;;;;3.17;2.22;;;27.00;33.50;;;;;;5218506;27;20200;-64
2021/06/01 11:35:59;;;;;;;2.70;2.00;;;27.00;35.30;;;;;;5261890;27;20124;-67
2021/06/01 11:38:33;;;;;;;3.03;1.85;;;27.10;34.00;;;;;;5261847;27;20153;-64
2021/06/01 11:43:55;;;;;;;2.97;1.73;;;26.70;34.20;;;;;;5261302;27;20130;-62
2021/06/01 11:46:27;;;;;;;4.10;1.92;;;26.80;35.30;;;;;;5261095;27;20427;-65
2021/06/01 11:51:42;;;;;;;3.78;2.45;;;27.00;33.10;;;;;;5260868;27;20130;-64
2021/06/01 11:54:11;;;;;;;2.87;1.77;;;26.80;33.60;;;;;;5262106;27;20103;-64
2021/06/01 11:56:48;;;;;;;4.65;2.00;;;26.90;35.50;;;;;;5262661;27;20134;-63
2021/06/01 12:02:10;;;;;;;3.20;1.70;;;26.90;34.70;;;;;;5259916;27;20123;-67
2021/06/01 12:04:49;;;;;;;2.20;2.00;;;27.20;34.40;;;;;;5262669;27;20106;-63
2021/06/01 12:13:06;;;;;;;3.20;1.67;;;26.90;33.20;;;;;;5261130;27;20133;-65
2021/06/01 12:18:23;;;;;;;4.05;1.62;;;26.80;33.40;;;;;;5262927;27;20455;-65
2021/06/01 12:20:50;;;;;;;2.95;1.75;;;26.90;32.60;;;;;;5260299;27;20123;-64
2021/06/01 12:23:28;;;;;;;2.75;1.37;;;26.80;33.70;;;;;;5196285;27;1784101;-62
2021/06/01 12:26:18;;;;;;;4.00;1.80;;;26.80;34.50;;;;;;5260909;27;20106;-69
2021/06/01 12:32:03;;;;;;;4.82;1.87;;;27.00;31.20;;;;;;5152403;27;20595;-62
2021/06/01 12:34:43;;;;;;;4.03;1.60;;;27.00;32.80;;;;;;5152324;27;20129;-64
2021/06/01 13:19:38;;;;;;;2.78;2.30;;;27.00;34.10;;;;;;5261072;27;20149;-64
2021/06/01 13:22:31;;;;;;;4.15;1.75;;;26.90;33.40;;;;;;5260124;27;20139;-63
2021/06/01 13:30:37;;;;;;;2.55;1.42;;;26.90;33.20;;;;;;5261845;27;20153;-63
2021/06/01 13:38:56;;;;;;;4.95;1.90;;;27.00;33.40;;;;;;5260054;27;20567;-62
2021/06/01 13:47:09;;;;;;;2.12;1.92;;;26.90;33.70;;;;;;5260359;27;20153;-62
2021/06/01 13:49:41;;;;;;;2.45;2.25;;;26.90;34.10;;;;;;5260371;27;20146;-62
2021/06/01 13:52:47;;;;;;;2.97;1.87;;;27.00;33.60;;;;;;5259642;27;20453;-62
2021/06/01 13:55:17;;;;;;;3.45;2.00;;;27.00;33.10;;;;;;5258366;27;20150;-63
2021/06/01 13:58:03;;;;;;;3.12;2.15;;;27.00;33.70;;;;;;5259954;27;20131;-62
2021/06/01 14:00:36;;;;;;;2.65;1.48;;;26.90;32.80;;;;;;5259725;27;20107;-63
2021/06/01 14:20:20;;;;;;;3.42;2.10;;;27.10;34.50;;;;;;5194744;27;20674;-64
2021/06/01 15:28:51;;;;;;;5.03;2.60;;;27.10;35.50;;;;;;5260806;27;20554;-65
2021/06/01 15:47:57;;;;;;;3.78;2.47;;;26.90;36.50;;;;;;5261181;27;20153;-65
2021/06/01 15:50:37;;;;;;;2.70;2.20;;;26.80;36.60;;;;;;5262057;27;20190;-63
2021/06/01 15:53:36;;;;;;;4.93;2.30;;;26.80;36.50;;;;;;5260803;27;20108;-64
2021/06/01 16:21:32;;;;;;;5.03;2.30;;;26.70;36.90;;;;;;5132040;28;21411;-62
2021/06/01 16:32:54;;;;;;;3.78;2.10;;;26.70;36.50;;;;;;5131331;28;20256;-64
2021/06/01 16:43:50;;;;;;;2.40;2.20;;;26.60;37.00;;;;;;5194341;27;20174;-63
2021/06/01 17:03:12;;;;;;;2.25;2.05;;;26.10;37.20;;;;;;5261038;27;20197;-62
2021/06/01 17:05:42;;;;;;;2.75;2.22;;;26.10;36.80;;;;;;5261272;27;20463;-62
2021/06/01 17:11:18;;;;;;;2.80;2.10;;;26.10;37.00;;;;;;5172139;27;20121;-64
2021/06/01 17:13:52;;;;;;;3.10;2.25;;;26.20;37.80;;;;;;5172341;27;20156;-62
2021/06/01 17:16:32;;;;;;;2.35;1.67;;;26.10;37.30;;;;;;5172810;27;20124;-62
2021/06/01 17:22:10;;;;;;;2.97;2.12;;;25.90;37.50;;;;;;5090136;28;20535;-61
2021/06/01 17:35:56;;;;;;;3.20;2.08;;;25.70;38.30;;;;;;4971649;28;20150;-64
2021/06/01 17:38:23;;;;;;;3.08;2.30;;;25.80;38.60;;;;;;4970841;28;20124;-63
2021/06/01 17:40:56;;;;;;;4.90;2.65;;;25.70;38.80;;;;;;4965744;28;20120;-63
2021/06/01 17:43:27;;;;;;;2.53;2.15;;;25.60;38.10;;;;;;4971638;28;20131;-63
2021/06/01 17:45:57;;;;;;;4.95;2.58;;;25.60;38.60;;;;;;4971269;28;20128;-62
2021/06/01 17:48:39;;;;;;;3.60;2.47;;;25.50;38.70;;;;;;5011501;28;20472;-62
2021/06/01 17:51:07;;;;;;;2.10;1.90;;;25.40;39.20;;;;;;5049831;28;20178;-62
2021/06/01 17:53:43;;;;;;;3.87;3.08;;;25.40;40.10;;;;;;5047974;28;20119;-62
2021/06/01 17:56:13;;;;;;;3.83;2.22;;;25.40;39.50;;;;;;5046970;28;20165;-62
2021/06/01 17:58:43;;;;;;;5.05;2.80;;;25.30;39.60;;;;;;5153380;27;20124;-64
2021/06/01 18:01:09;;;;;;;4.32;2.10;;;25.20;39.70;;;;;;5193683;27;20136;-65